Time;durP1;ratioP1;P1;durP2;ratioP2;P2;SDS_P1;SDS_P2;PMS_P1;PMS_P2;Temp;Humidity;BMP_temperature;BMP_pressure;BME280_temperature;BME280_humidity;BME280_pressure;Samples;Min_cycle;Max_cycle;Signal;HPM_P1;HPM_P2
2023/07/25 00:01:42;;;;;;;9.60;5.13;;;15.80;99.90;;;;;;5037161;28;20091;-80
2023/07/25 00:04:28;;;;;;;9.68;5.32;;;15.70;99.90;;;;;;5023736;28;20156;-80
2023/07/25 00:07:14;;;;;;;11.52;5.38;;;15.80;99.90;;;;;;5016880;28;20098;-80
2023/07/25 00:10:02;;;;;;;9.85;4.95;;;15.80;99.90;;;;;;5024110;28;20129;-80
2023/07/25 00:12:52;;;;;;;8.93;5.63;;;15.80;99.90;;;;;;5017716;28;20037;-80
2023/07/25 00:15:39;;;;;;;12.60;5.22;;;15.80;99.90;;;;;;5021287;28;20072;-80
2023/07/25 00:18:25;;;;;;;10.07;5.57;;;15.80;99.90;;;;;;5037664;28;20038;-80
2023/07/25 00:21:12;;;;;;;9.65;5.10;;;15.90;99.90;;;;;;5010184;28;20037;-80
2023/07/25 00:24:00;;;;;;;12.03;5.80;;;15.90;99.90;;;;;;5012498;28;20063;-80
2023/07/25 00:26:47;;;;;;;13.50;5.50;;;15.70;99.90;;;;;;5024643;28;20275;-79
2023/07/25 00:29:33;;;;;;;10.60;4.82;;;15.80;99.90;;;;;;5035431;28;20056;-77
2023/07/25 00:32:18;;;;;;;10.50;4.78;;;15.90;99.90;;;;;;5014060;28;20041;-76
2023/07/25 00:35:05;;;;;;;9.85;4.03;;;15.90;99.90;;;;;;5039178;28;20047;-76
2023/07/25 00:37:51;;;;;;;6.85;4.32;;;15.80;99.90;;;;;;5043366;28;20041;-77
2023/07/25 00:40:40;;;;;;;11.13;4.95;;;15.90;99.90;;;;;;5016885;28;20044;-76
2023/07/25 00:43:26;;;;;;;10.93;4.95;;;15.70;99.90;;;;;;5012918;28;20091;-76
2023/07/25 00:46:12;;;;;;;13.20;4.35;;;15.70;99.90;;;;;;5040700;28;20029;-77
2023/07/25 00:48:58;;;;;;;11.75;4.25;;;15.60;99.90;;;;;;5030950;28;20034;-76
2023/07/25 00:51:44;;;;;;;10.63;3.78;;;15.50;99.90;;;;;;5024689;28;20040;-77
2023/07/25 00:54:30;;;;;;;8.65;4.68;;;15.50;99.90;;;;;;5039705;28;20041;-77
2023/07/25 00:57:16;;;;;;;7.65;3.97;;;15.40;99.90;;;;;;5016881;28;20045;-76
2023/07/25 01:00:03;;;;;;;18.13;4.40;;;15.50;99.90;;;;;;5031259;28;20055;-76
2023/07/25 01:02:49;;;;;;;7.75;4.15;;;15.40;99.90;;;;;;5007971;28;20065;-77
2023/07/25 01:05:37;;;;;;;8.32;3.22;;;15.40;99.90;;;;;;5016313;28;20045;-77
2023/07/25 01:08:23;;;;;;;9.43;3.92;;;15.50;99.90;;;;;;5035251;28;20049;-76
2023/07/25 01:11:09;;;;;;;14.23;4.00;;;15.40;99.90;;;;;;5021720;28;20377;-76
2023/07/25 01:13:55;;;;;;;9.23;3.35;;;15.30;99.90;;;;;;5006511;28;20077;-76
2023/07/25 01:16:41;;;;;;;11.68;3.05;;;15.40;99.90;;;;;;5032760;28;20122;-76
2023/07/25 01:19:28;;;;;;;8.07;2.50;;;15.30;99.90;;;;;;5010448;28;20377;-77
2023/07/25 01:22:14;;;;;;;7.30;2.97;;;15.40;99.90;;;;;;5035605;28;20052;-76
2023/07/25 01:25:00;;;;;;;13.23;2.58;;;15.40;99.90;;;;;;5029942;28;20042;-77
2023/07/25 01:27:46;;;;;;;6.70;2.22;;;15.30;99.90;;;;;;5011566;28;20132;-77
2023/07/25 01:30:32;;;;;;;8.80;3.22;;;15.20;99.90;;;;;;5020424;28;20040;-76
2023/07/25 01:33:18;;;;;;;9.77;2.45;;;15.20;99.90;;;;;;5025955;28;20076;-76
2023/07/25 01:36:04;;;;;;;10.48;2.88;;;15.30;99.90;;;;;;5006208;28;20045;-76
2023/07/25 01:38:50;;;;;;;6.35;2.50;;;15.20;99.90;;;;;;5021372;28;20048;-76
2023/07/25 01:41:37;;;;;;;7.13;2.28;;;15.20;99.90;;;;;;5031677;28;20506;-77
2023/07/25 01:44:23;;;;;;;7.82;2.22;;;15.10;99.90;;;;;;5038432;28;20103;-76
2023/07/25 01:47:09;;;;;;;6.40;2.30;;;15.20;99.90;;;;;;5034707;28;20040;-76
2023/07/25 01:49:55;;;;;;;8.73;2.78;;;15.30;99.90;;;;;;5020379;28;20046;-76
2023/07/25 01:52:41;;;;;;;10.30;3.00;;;15.30;99.90;;;;;;5010209;28;20091;-76
2023/07/25 01:55:27;;;;;;;7.22;2.53;;;15.30;99.90;;;;;;5012177;28;20099;-76
2023/07/25 01:58:22;;;;;;;12.80;2.67;;;15.20;99.90;;;;;;5029125;28;20056;-76
2023/07/25 02:01:08;;;;;;;7.05;2.58;;;15.10;99.90;;;;;;5028122;28;20041;-76
2023/07/25 02:03:54;;;;;;;14.60;3.60;;;15.10;99.90;;;;;;5017257;28;20042;-76
2023/07/25 02:06:40;;;;;;;9.85;2.55;;;15.10;99.90;;;;;;5029301;28;20029;-77
2023/07/25 02:09:26;;;;;;;11.68;2.88;;;15.10;99.90;;;;;;5001136;28;20057;-76
2023/07/25 02:12:12;;;;;;;7.90;2.45;;;15.10;99.90;;;;;;5014654;28;20041;-76
2023/07/25 02:14:58;;;;;;;9.48;2.88;;;15.20;99.90;;;;;;5015308;28;20068;-76
2023/07/25 02:17:44;;;;;;;12.15;3.20;;;15.20;99.90;;;;;;5035774;28;20041;-76
2023/07/25 02:20:31;;;;;;;9.20;2.90;;;15.20;99.90;;;;;;5011138;28;20730;-76
2023/07/25 02:23:17;;;;;;;13.50;3.08;;;15.10;99.90;;;;;;5038036;28;20361;-76
2023/07/25 02:26:03;;;;;;;9.82;3.38;;;15.00;99.90;;;;;;5019867;28;20120;-76
2023/07/25 02:28:49;;;;;;;12.98;3.20;;;15.00;99.90;;;;;;5033105;28;20048;-76
2023/07/25 02:31:35;;;;;;;14.48;3.10;;;15.00;99.90;;;;;;5003223;28;20041;-76
2023/07/25 02:34:21;;;;;;;15.10;3.50;;;15.10;99.90;;;;;;5015254;28;20101;-77
2023/07/25 02:37:07;;;;;;;13.90;3.80;;;15.00;99.90;;;;;;5005765;28;20065;-77
2023/07/25 02:39:53;;;;;;;14.55;3.22;;;15.00;99.90;;;;;;5020621;28;20102;-76
2023/07/25 02:42:39;;;;;;;19.08;3.58;;;15.10;99.90;;;;;;5038340;28;20055;-76
2023/07/25 02:45:24;;;;;;;15.68;3.35;;;15.10;99.90;;;;;;5031758;28;20045;-77
2023/07/25 02:48:10;;;;;;;16.58;3.67;;;15.10;99.90;;;;;;5039823;28;20033;-76
2023/07/25 02:50:56;;;;;;;11.52;3.10;;;15.00;99.90;;;;;;5025402;28;20068;-76
2023/07/25 02:53:42;;;;;;;18.35;3.83;;;15.00;99.90;;;;;;4973911;28;20631;-76
2023/07/25 02:56:28;;;;;;;14.60;3.30;;;14.90;99.90;;;;;;5012726;28;20051;-76
2023/07/25 02:59:14;;;;;;;19.75;3.63;;;15.00;99.90;;;;;;5007783;28;20606;-76
2023/07/25 03:02:00;;;;;;;18.42;3.53;;;15.00;99.90;;;;;;5011301;28;20041;-76
2023/07/25 03:04:46;;;;;;;15.73;3.00;;;14.90;99.90;;;;;;5021692;28;20809;-76
2023/07/25 03:07:32;;;;;;;12.13;2.92;;;15.00;99.90;;;;;;5025359;28;20038;-76
2023/07/25 03:10:18;;;;;;;14.95;3.70;;;15.00;99.90;;;;;;5006839;28;20117;-76
2023/07/25 03:13:04;;;;;;;13.65;3.20;;;14.90;99.90;;;;;;5013415;28;20042;-76
2023/07/25 03:15:50;;;;;;;10.18;2.92;;;14.90;99.90;;;;;;4995886;28;20597;-76
2023/07/25 03:18:36;;;;;;;15.85;3.20;;;14.90;99.90;;;;;;4974938;28;20043;-76
2023/07/25 03:21:22;;;;;;;16.10;3.70;;;14.90;99.90;;;;;;4986076;28;20050;-76
2023/07/25 03:24:08;;;;;;;12.77;3.63;;;14.90;99.90;;;;;;4980357;28;20046;-76
2023/07/25 03:26:54;;;;;;;11.07;3.53;;;14.90;99.90;;;;;;4988569;28;20046;-76
2023/07/25 03:29:40;;;;;;;10.52;2.80;;;15.00;99.90;;;;;;4949580;28;20488;-76
2023/07/25 03:32:26;;;;;;;14.25;3.55;;;14.80;99.90;;;;;;4963077;28;20042;-76
2023/07/25 03:35:12;;;;;;;13.52;4.28;;;14.70;99.90;;;;;;4982657;28;20462;-77
2023/07/25 03:37:58;;;;;;;12.23;3.15;;;14.70;99.90;;;;;;4989293;28;20131;-76
2023/07/25 03:40:44;;;;;;;16.25;3.55;;;14.80;99.90;;;;;;4997654;28;20486;-76
2023/07/25 03:43:30;;;;;;;14.77;3.92;;;14.90;99.90;;;;;;4984030;28;20057;-76
2023/07/25 03:46:16;;;;;;;12.82;4.07;;;14.90;99.90;;;;;;5017205;28;20383;-76
2023/07/25 03:49:02;;;;;;;13.60;3.65;;;14.90;99.90;;;;;;5001369;28;20038;-76
2023/07/25 03:51:48;;;;;;;15.25;3.90;;;14.90;99.90;;;;;;4996984;28;20042;-76
2023/07/25 03:54:34;;;;;;;17.20;5.78;;;14.80;99.90;;;;;;4983034;28;20469;-77
2023/07/25 03:57:20;;;;;;;23.55;4.38;;;14.90;99.90;;;;;;4995747;28;20053;-76
2023/07/25 04:00:06;;;;;;;11.40;3.70;;;14.80;99.90;;;;;;5009729;28;20227;-76
2023/07/25 04:02:52;;;;;;;13.35;4.30;;;14.90;99.90;;;;;;4978233;28;20050;-76
2023/07/25 04:05:39;;;;;;;13.30;3.50;;;14.90;99.90;;;;;;4978775;28;20030;-76
2023/07/25 04:08:25;;;;;;;12.98;4.57;;;15.00;99.90;;;;;;4993401;28;20473;-76
2023/07/25 04:11:14;;;;;;;13.48;4.35;;;15.00;99.90;;;;;;5003888;28;20038;-76
2023/07/25 04:14:00;;;;;;;12.20;3.72;;;15.00;99.90;;;;;;5022536;28;20369;-76
2023/07/25 04:16:46;;;;;;;14.65;4.35;;;15.10;99.90;;;;;;5026741;28;20041;-76
2023/07/25 04:19:32;;;;;;;14.73;4.47;;;15.00;99.90;;;;;;5035762;28;20125;-76
2023/07/25 04:22:18;;;;;;;18.55;4.40;;;15.10;99.90;;;;;;5005937;28;20073;-76
2023/07/25 04:25:04;;;;;;;14.00;3.75;;;15.00;99.90;;;;;;5002458;28;20037;-76
2023/07/25 04:27:50;;;;;;;10.02;4.25;;;14.80;99.90;;;;;;5015236;28;20030;-76
2023/07/25 04:30:36;;;;;;;10.23;3.95;;;15.00;99.90;;;;;;5001352;28;20042;-76
2023/07/25 04:33:22;;;;;;;19.48;4.00;;;14.90;99.90;;;;;;5031925;28;20040;-76
2023/07/25 04:36:08;;;;;;;16.13;3.75;;;14.90;99.90;;;;;;5023397;28;20477;-76
2023/07/25 04:38:56;;;;;;;12.07;3.78;;;14.90;99.90;;;;;;5021457;28;20144;-76
2023/07/25 04:41:42;;;;;;;17.45;3.25;;;14.80;99.90;;;;;;5002779;28;20042;-76
2023/07/25 04:44:28;;;;;;;15.63;4.25;;;14.80;99.90;;;;;;5014765;28;20033;-76
2023/07/25 04:47:14;;;;;;;11.00;3.28;;;15.00;99.90;;;;;;5016052;28;20516;-76
2023/07/25 04:50:00;;;;;;;10.80;3.47;;;15.00;99.90;;;;;;5033485;28;20041;-76
2023/07/25 04:52:47;;;;;;;12.23;3.58;;;15.00;99.90;;;;;;5026714;28;20094;-76
2023/07/25 04:55:33;;;;;;;15.18;3.90;;;15.10;99.90;;;;;;5041683;28;20124;-76
2023/07/25 04:58:19;;;;;;;12.95;3.38;;;15.20;99.90;;;;;;5029035;28;20045;-76
2023/07/25 05:01:05;;;;;;;17.98;4.88;;;15.10;99.90;;;;;;5034855;28;20045;-76
2023/07/25 05:03:51;;;;;;;17.45;3.60;;;15.00;99.90;;;;;;5037406;28;20060;-76
2023/07/25 05:06:37;;;;;;;15.23;3.70;;;15.10;99.90;;;;;;5041622;28;20361;-76
2023/07/25 05:09:23;;;;;;;15.85;3.50;;;15.20;99.90;;;;;;5020556;28;20100;-75
2023/07/25 05:12:11;;;;;;;15.00;4.13;;;15.20;99.90;;;;;;5016297;28;20120;-76
2023/07/25 05:14:57;;;;;;;15.70;3.90;;;15.10;99.90;;;;;;5008607;28;20694;-76
2023/07/25 05:17:43;;;;;;;25.52;3.95;;;15.00;99.90;;;;;;5005868;28;20042;-76
2023/07/25 05:20:29;;;;;;;12.43;3.40;;;15.10;99.90;;;;;;5015456;28;20048;-76
2023/07/25 05:23:15;;;;;;;12.00;4.25;;;15.10;99.90;;;;;;5009488;28;20046;-76
2023/07/25 05:26:01;;;;;;;13.27;3.75;;;15.00;99.90;;;;;;4979141;28;20092;-76
2023/07/25 05:28:47;;;;;;;10.13;3.95;;;15.20;99.90;;;;;;5014119;28;20042;-76
2023/07/25 05:31:33;;;;;;;12.07;3.58;;;15.00;99.90;;;;;;4987435;28;20057;-75
2023/07/25 05:34:19;;;;;;;14.05;4.38;;;15.00;99.90;;;;;;4982037;28;20042;-75
2023/07/25 05:37:06;;;;;;;20.88;6.75;;;14.90;99.90;;;;;;4975029;28;20093;-75
2023/07/25 05:39:52;;;;;;;14.95;4.40;;;15.00;99.90;;;;;;4979386;28;20070;-76
2023/07/25 05:42:38;;;;;;;14.82;4.97;;;15.00;99.90;;;;;;4949352;28;20129;-76
2023/07/25 05:45:23;;;;;;;17.05;5.32;;;15.00;99.90;;;;;;4949051;28;20805;-76
2023/07/25 05:48:09;;;;;;;14.55;5.45;;;15.00;99.90;;;;;;4981570;28;20085;-76
2023/07/25 05:50:55;;;;;;;16.05;5.22;;;15.00;99.90;;;;;;4980741;28;20403;-76
2023/07/25 05:53:41;;;;;;;18.20;6.40;;;15.00;99.90;;;;;;4994062;28;20055;-76
2023/07/25 05:56:27;;;;;;;14.10;7.40;;;15.00;99.90;;;;;;4981443;28;20724;-76
2023/07/25 05:59:13;;;;;;;14.77;7.75;;;15.00;99.90;;;;;;4994222;28;20046;-76
2023/07/25 06:01:59;;;;;;;22.30;8.18;;;15.10;99.90;;;;;;4994942;28;20046;-76
2023/07/25 06:04:46;;;;;;;23.67;8.75;;;15.10;99.90;;;;;;5006059;28;20370;-75
2023/07/25 06:07:33;;;;;;;20.17;7.25;;;15.20;99.90;;;;;;4981852;28;20039;-76
2023/07/25 06:10:19;;;;;;;16.90;7.73;;;15.20;99.90;;;;;;4961171;28;20424;-76
2023/07/25 06:13:06;;;;;;;17.27;6.72;;;15.30;99.90;;;;;;4975274;28;20045;-76
2023/07/25 06:15:51;;;;;;;14.25;7.63;;;15.40;99.90;;;;;;4963940;28;20045;-76
2023/07/25 06:18:37;;;;;;;13.20;7.50;;;15.50;99.90;;;;;;4962373;28;20043;-76
2023/07/25 06:21:24;;;;;;;12.88;6.88;;;15.50;99.90;;;;;;4967551;28;20042;-76
2023/07/25 06:24:10;;;;;;;15.20;6.70;;;15.50;99.90;;;;;;4993137;28;20046;-77
2023/07/25 06:26:56;;;;;;;11.57;6.05;;;15.60;99.90;;;;;;4959630;28;20045;-76
2023/07/25 06:29:42;;;;;;;16.17;6.55;;;15.50;99.90;;;;;;4978123;28;20035;-77
2023/07/25 06:32:28;;;;;;;16.27;6.70;;;15.60;99.90;;;;;;5007748;28;20046;-76
2023/07/25 06:35:14;;;;;;;12.35;6.25;;;15.60;99.90;;;;;;5008424;28;20057;-78
2023/07/25 06:38:01;;;;;;;17.60;5.90;;;15.50;99.90;;;;;;4979811;28;20049;-79
2023/07/25 06:40:47;;;;;;;12.02;5.95;;;15.60;99.90;;;;;;4981475;28;20042;-78
2023/07/25 06:43:33;;;;;;;15.23;6.35;;;15.60;99.90;;;;;;4962302;28;20062;-78
2023/07/25 06:46:21;;;;;;;10.02;6.43;;;15.70;99.90;;;;;;5003296;28;20038;-79
2023/07/25 06:49:07;;;;;;;14.75;6.60;;;15.70;99.90;;;;;;5002793;28;20058;-79
2023/07/25 06:51:55;;;;;;;11.20;6.38;;;15.60;99.90;;;;;;4974321;28;20367;-78
2023/07/25 06:54:42;;;;;;;13.32;5.93;;;15.60;99.90;;;;;;5018268;28;20034;-79
2023/07/25 06:57:28;;;;;;;12.20;6.47;;;15.70;99.90;;;;;;4975433;28;20043;-79
2023/07/25 07:00:16;;;;;;;11.80;6.28;;;15.50;99.90;;;;;;4974769;28;20277;-78
2023/07/25 07:03:02;;;;;;;13.60;6.03;;;15.60;99.90;;;;;;4993578;28;20467;-79
2023/07/25 07:05:53;;;;;;;13.65;6.50;;;15.60;99.90;;;;;;5000370;28;20069;-79
2023/07/25 07:08:39;;;;;;;13.80;6.10;;;15.60;99.90;;;;;;5015877;28;20061;-79
2023/07/25 07:11:26;;;;;;;15.80;7.28;;;15.60;99.90;;;;;;5012906;28;20041;-79
2023/07/25 07:14:12;;;;;;;13.98;7.22;;;15.60;99.90;;;;;;5015276;28;20073;-79
2023/07/25 07:16:58;;;;;;;12.02;6.70;;;15.70;99.90;;;;;;5022400;28;20524;-80
2023/07/25 07:19:44;;;;;;;10.68;6.50;;;15.70;99.90;;;;;;5017917;28;20038;-78
2023/07/25 07:22:30;;;;;;;15.88;7.70;;;15.60;99.90;;;;;;5031976;28;20041;-78
2023/07/25 07:25:16;;;;;;;13.57;7.00;;;15.50;99.90;;;;;;5037264;28;20037;-79
2023/07/25 07:28:03;;;;;;;15.70;6.50;;;15.50;99.90;;;;;;5020004;28;20405;-79
2023/07/25 07:30:50;;;;;;;11.77;7.23;;;15.60;99.90;;;;;;5033170;28;20045;-79
2023/07/25 07:33:37;;;;;;;13.35;6.70;;;15.70;99.90;;;;;;5010815;28;20071;-79
2023/07/25 07:36:24;;;;;;;13.23;6.85;;;15.70;99.90;;;;;;5001830;28;20092;-78
2023/07/25 07:39:12;;;;;;;16.52;7.38;;;15.70;99.90;;;;;;5019835;28;20473;-77
2023/07/25 07:41:59;;;;;;;;;;;15.60;99.90;;;;;;5022172;28;20049;-79
2023/07/25 07:44:45;;;;;;;15.15;6.90;;;15.50;99.90;;;;;;5030588;28;20521;-78
2023/07/25 07:47:31;;;;;;;9.85;6.25;;;15.60;99.90;;;;;;5028177;28;20038;-77
2023/07/25 07:50:17;;;;;;;15.95;6.78;;;15.50;99.90;;;;;;5038475;28;20033;-78
2023/07/25 07:53:03;;;;;;;13.30;6.43;;;15.50;99.90;;;;;;5024341;28;20042;-77
2023/07/25 07:55:49;;;;;;;12.90;7.32;;;15.60;99.90;;;;;;5023691;28;20048;-78
2023/07/25 07:58:35;;;;;;;14.88;7.68;;;15.80;99.90;;;;;;5023319;28;20091;-78
2023/07/25 08:01:21;;;;;;;14.20;6.53;;;15.90;99.90;;;;;;5029047;28;20047;-78
2023/07/25 08:04:08;;;;;;;14.70;6.55;;;16.00;99.90;;;;;;5027932;28;20042;-78
2023/07/25 08:06:54;;;;;;;14.13;6.47;;;16.10;99.90;;;;;;5035965;28;20032;-78
2023/07/25 08:09:40;;;;;;;13.90;6.20;;;16.10;99.90;;;;;;5029651;28;20049;-78
2023/07/25 08:12:26;;;;;;;16.73;5.85;;;16.20;99.90;;;;;;5028856;28;20404;-78
2023/07/25 08:15:12;;;;;;;10.45;5.35;;;16.20;99.90;;;;;;5040894;28;20040;-78
2023/07/25 08:17:58;;;;;;;15.38;5.38;;;16.30;99.90;;;;;;5034201;28;20048;-76
2023/07/25 08:20:47;;;;;;;17.70;4.75;;;16.40;99.90;;;;;;5019010;28;20318;-75
2023/07/25 08:23:33;;;;;;;9.27;2.30;;;16.50;99.90;;;;;;5021822;28;20048;-75
2023/07/25 08:26:18;;;;;;;8.95;2.28;;;16.40;99.90;;;;;;5020777;28;20823;-76
2023/07/25 08:29:04;;;;;;;10.88;3.00;;;16.50;99.90;;;;;;5034648;28;20087;-75
2023/07/25 08:31:50;;;;;;;9.32;4.07;;;16.50;99.90;;;;;;5040117;28;20088;-76
2023/07/25 08:34:37;;;;;;;11.52;3.20;;;16.60;99.90;;;;;;5021616;28;20042;-76
2023/07/25 08:37:25;;;;;;;7.22;2.63;;;16.60;99.90;;;;;;5015769;28;20375;-76
2023/07/25 08:40:11;;;;;;;10.37;3.63;;;16.70;99.90;;;;;;5016307;28;20037;-76
2023/07/25 08:43:02;;;;;;;10.40;3.75;;;16.90;99.90;;;;;;5021049;28;20544;-76
2023/07/25 08:45:49;;;;;;;11.82;3.50;;;16.90;99.90;;;;;;4994429;28;20099;-75
2023/07/25 08:48:37;;;;;;;7.47;3.08;;;17.00;99.90;;;;;;5034918;28;20037;-75
2023/07/25 08:51:23;;;;;;;7.32;2.95;;;16.80;99.90;;;;;;5027709;28;20033;-78
2023/07/25 08:54:25;;;;;;;6.43;2.55;;;16.50;99.90;;;;;;5022272;28;20160;-79
2023/07/25 08:57:11;;;;;;;10.80;3.22;;;16.40;99.90;;;;;;5025809;28;20041;-78
2023/07/25 08:59:57;;;;;;;10.18;3.08;;;16.50;99.90;;;;;;5002757;28;20169;-79
2023/07/25 09:02:43;;;;;;;6.18;3.10;;;16.60;99.90;;;;;;5002941;28;20061;-78
2023/07/25 09:05:29;;;;;;;10.88;2.70;;;16.70;99.90;;;;;;5027700;28;20037;-78
2023/07/25 09:08:14;;;;;;;9.50;3.15;;;16.80;99.90;;;;;;5017579;28;20038;-79
2023/07/25 09:11:00;;;;;;;8.43;3.25;;;16.90;99.90;;;;;;5020900;28;20043;-78
2023/07/25 09:13:48;;;;;;;6.93;3.33;;;17.00;99.90;;;;;;5043639;28;20182;-78
2023/07/25 09:16:34;;;;;;;6.30;2.30;;;17.20;99.90;;;;;;5022826;28;20466;-79
2023/07/25 09:19:20;;;;;;;9.60;2.40;;;17.00;99.90;;;;;;5021401;28;20043;-78
2023/07/25 09:22:06;;;;;;;7.68;2.50;;;17.10;99.90;;;;;;5036499;28;20119;-78
2023/07/25 09:24:52;;;;;;;11.52;2.78;;;17.10;99.90;;;;;;5022333;28;20033;-78
2023/07/25 09:27:37;;;;;;;8.95;1.90;;;17.10;99.90;;;;;;5037166;28;20079;-78
2023/07/25 09:30:27;;;;;;;4.70;1.50;;;17.10;99.60;;;;;;5035287;28;20095;-78
2023/07/25 09:33:25;;;;;;;6.93;2.10;;;17.10;99.30;;;;;;5021675;28;20042;-78
2023/07/25 09:36:12;;;;;;;6.18;2.10;;;17.10;99.90;;;;;;5034441;28;20041;-78
2023/07/25 09:38:58;;;;;;;5.85;2.10;;;17.00;99.90;;;;;;5022105;28;20080;-78
2023/07/25 09:41:45;;;;;;;4.85;1.95;;;16.90;99.90;;;;;;5036594;28;20037;-78
2023/07/25 09:44:34;;;;;;;7.43;2.22;;;16.90;99.90;;;;;;5022820;28;20600;-78
2023/07/25 09:47:23;;;;;;;7.88;2.10;;;17.00;99.90;;;;;;5021654;28;20045;-78
2023/07/25 09:50:09;;;;;;;6.70;1.95;;;17.10;99.90;;;;;;5016371;28;20041;-78
2023/07/25 09:52:55;;;;;;;4.63;1.73;;;17.10;99.90;;;;;;5020377;28;20098;-79
2023/07/25 09:55:42;;;;;;;7.47;1.77;;;17.20;99.10;;;;;;5008871;28;20041;-79
2023/07/25 09:58:28;;;;;;;5.47;1.83;;;17.30;98.80;;;;;;5009162;28;20381;-78
2023/07/25 10:01:14;;;;;;;6.25;2.20;;;17.50;99.30;;;;;;5026537;28;20033;-78
2023/07/25 10:04:00;;;;;;;11.05;3.50;;;17.70;99.50;;;;;;4991228;28;20076;-80
2023/07/25 10:06:46;;;;;;;6.28;1.90;;;17.90;99.20;;;;;;4990342;28;20033;-78
2023/07/25 10:09:32;;;;;;;6.20;2.17;;;17.90;99.70;;;;;;4990552;28;20076;-78
2023/07/25 10:12:18;;;;;;;7.97;2.00;;;17.90;99.90;;;;;;5027438;28;20047;-79
2023/07/25 10:15:04;;;;;;;5.38;1.90;;;17.80;99.70;;;;;;5042009;28;20075;-79
2023/07/25 10:17:50;;;;;;;7.45;2.33;;;17.80;99.90;;;;;;5022470;28;20053;-78
2023/07/25 10:20:36;;;;;;;8.02;1.90;;;17.80;99.90;;;;;;4998441;28;20037;-78
2023/07/25 10:23:51;;;;;;;6.63;1.90;;;17.80;99.90;;;;;;5018754;28;20103;-78
2023/07/25 10:26:58;;;;;;;7.50;1.98;;;17.80;99.90;;;;;;5022144;28;20114;-79
2023/07/25 10:29:46;;;;;;;8.77;1.98;;;18.00;99.90;;;;;;5023605;28;20758;-78
2023/07/25 10:32:45;;;;;;;8.00;2.33;;;18.20;98.50;;;;;;5035920;28;20045;-79
2023/07/25 10:35:52;;;;;;;7.22;1.95;;;18.20;98.70;;;;;;5024535;28;20045;-78
2023/07/25 10:38:42;;;;;;;6.27;1.70;;;18.30;99.20;;;;;;5009953;28;20056;-78
2023/07/25 10:41:28;;;;;;;8.63;2.03;;;18.20;98.80;;;;;;5001097;28;20049;-78
2023/07/25 10:44:35;;;;;;;5.13;1.77;;;18.50;98.40;;;;;;5017650;28;20037;-78
2023/07/25 10:47:45;;;;;;;7.05;2.30;;;18.60;98.20;;;;;;5022370;28;20065;-78
2023/07/25 10:50:43;;;;;;;7.60;1.90;;;18.70;98.40;;;;;;5033401;28;20076;-78
2023/07/25 10:53:29;;;;;;;7.47;1.85;;;18.60;97.60;;;;;;5016215;28;20159;-78
2023/07/25 10:56:16;;;;;;;5.85;1.40;;;18.50;97.00;;;;;;5013918;28;20382;-78
2023/07/25 10:59:12;;;;;;;8.32;1.60;;;18.40;96.40;;;;;;5034417;28;20339;-79
2023/07/25 11:01:58;;;;;;;6.38;1.45;;;18.20;95.70;;;;;;5000779;28;20060;-79
2023/07/25 11:04:44;;;;;;;5.80;1.80;;;18.00;96.10;;;;;;5025131;28;20108;-80
2023/07/25 11:07:30;;;;;;;7.13;1.73;;;18.00;96.00;;;;;;5020340;28;20075;-78
2023/07/25 11:10:26;;;;;;;8.65;2.15;;;17.90;96.60;;;;;;5006906;28;20054;-78
2023/07/25 11:13:12;;;;;;;7.07;2.00;;;18.00;97.60;;;;;;5023368;28;20037;-78
2023/07/25 11:15:58;;;;;;;7.22;2.15;;;18.10;98.10;;;;;;5041114;28;20368;-77
2023/07/25 11:18:50;;;;;;;4.55;1.80;;;18.00;97.80;;;;;;5010331;28;20116;-77
2023/07/25 11:21:38;;;;;;;8.52;2.03;;;17.90;97.70;;;;;;5006502;28;20037;-78
2023/07/25 11:24:24;;;;;;;8.43;1.90;;;17.70;98.00;;;;;;5019311;28;20042;-78
2023/07/25 11:27:10;;;;;;;7.50;2.30;;;17.80;98.40;;;;;;5024175;28;20037;-75
2023/07/25 11:30:20;;;;;;;10.00;2.47;;;17.90;98.40;;;;;;5019430;28;20473;-78
2023/07/25 11:33:06;;;;;;;5.65;1.90;;;18.10;98.10;;;;;;5034092;28;20108;-78
2023/07/25 11:35:56;;;;;;;7.90;1.95;;;18.40;98.30;;;;;;5006039;28;20367;-79
2023/07/25 11:38:42;;;;;;;6.53;2.17;;;18.60;97.90;;;;;;5030747;28;20048;-79
2023/07/25 11:41:29;;;;;;;5.65;1.70;;;18.70;97.70;;;;;;5028596;28;20038;-80
2023/07/25 11:44:17;;;;;;;3.83;1.63;;;18.80;95.60;;;;;;5020956;28;20038;-80
2023/07/25 11:47:03;;;;;;;7.32;1.88;;;19.00;97.00;;;;;;5021243;28;20037;-82
2023/07/25 11:49:49;;;;;;;5.18;1.42;;;19.10;96.30;;;;;;5048614;28;20037;-80
2023/07/25 11:52:39;;;;;;;4.95;1.45;;;19.40;94.80;;;;;;5013552;28;20102;-80
2023/07/25 11:55:32;;;;;;;5.93;1.38;;;19.20;93.20;;;;;;5036717;28;20045;-79
2023/07/25 11:58:19;;;;;;;3.97;1.42;;;19.20;93.30;;;;;;5016355;28;20161;-80
2023/07/25 12:01:09;;;;;;;7.82;1.75;;;19.30;93.20;;;;;;5007226;28;20041;-79
2023/07/25 12:03:56;;;;;;;4.88;1.17;;;19.20;93.00;;;;;;5022551;28;20042;-79
2023/07/25 12:06:42;;;;;;;5.43;1.23;;;19.00;92.50;;;;;;5021270;28;20042;-79
2023/07/25 12:09:28;;;;;;;4.60;1.70;;;19.00;93.60;;;;;;5008677;28;20057;-77
2023/07/25 12:12:14;;;;;;;5.97;1.60;;;19.10;94.20;;;;;;4994915;28;20465;-76
2023/07/25 12:15:01;;;;;;;3.60;1.25;;;19.20;93.90;;;;;;5020434;28;20041;-75
2023/07/25 12:17:49;;;;;;;5.35;1.50;;;19.10;93.60;;;;;;5049356;28;20072;-75
2023/07/25 12:20:39;;;;;;;4.65;1.52;;;19.00;93.80;;;;;;5017968;28;20125;-75
2023/07/25 12:23:32;;;;;;;5.32;1.65;;;19.00;94.40;;;;;;5035223;28;20132;-75
2023/07/25 12:26:21;;;;;;;4.20;1.50;;;18.90;94.40;;;;;;5023094;28;20033;-75
2023/07/25 12:29:15;;;;;;;3.92;1.50;;;18.90;94.50;;;;;;5020639;28;20045;-75
2023/07/25 12:32:01;;;;;;;6.90;1.38;;;18.90;94.20;;;;;;5020728;28;20034;-75
2023/07/25 12:34:50;;;;;;;5.80;1.40;;;19.00;94.00;;;;;;5020848;28;20750;-75
2023/07/25 12:37:36;;;;;;;5.72;1.83;;;19.10;93.90;;;;;;5007215;28;20041;-75
2023/07/25 12:40:25;;;;;;;6.68;1.80;;;19.00;93.30;;;;;;5021082;28;20494;-75
2023/07/25 12:43:11;;;;;;;4.32;1.30;;;19.00;93.60;;;;;;5034702;28;20057;-76
2023/07/25 12:45:57;;;;;;;5.20;1.30;;;19.20;94.00;;;;;;5035735;28;20041;-75
2023/07/25 12:48:43;;;;;;;3.97;1.40;;;19.20;93.30;;;;;;5035960;28;20036;-75
2023/07/25 12:51:29;;;;;;;5.90;2.50;;;19.20;93.40;;;;;;5038896;28;20661;-75
2023/07/25 12:54:15;;;;;;;6.22;1.40;;;19.30;92.90;;;;;;5037573;28;20132;-75
2023/07/25 12:57:02;;;;;;;4.43;1.55;;;19.20;92.30;;;;;;5041381;28;20037;-74
2023/07/25 12:59:48;;;;;;;4.88;1.40;;;19.30;93.00;;;;;;5048591;28;20075;-75
2023/07/25 13:02:34;;;;;;;3.70;1.10;;;19.20;92.10;;;;;;5024654;28;20049;-75
2023/07/25 13:05:20;;;;;;;7.75;1.83;;;19.10;92.40;;;;;;5023668;28;20037;-75
2023/07/25 13:08:06;;;;;;;5.45;1.52;;;19.10;92.30;;;;;;5024226;28;20133;-75
2023/07/25 13:10:52;;;;;;;6.63;1.33;;;19.10;92.80;;;;;;5047139;28;20056;-75
2023/07/25 13:13:38;;;;;;;4.70;1.38;;;19.00;92.30;;;;;;5032543;28;20068;-75
2023/07/25 13:16:26;;;;;;;5.95;1.33;;;19.00;92.80;;;;;;5020416;28;20042;-75
2023/07/25 13:19:12;;;;;;;6.32;1.55;;;18.90;93.20;;;;;;4999456;28;20049;-75
2023/07/25 13:21:58;;;;;;;6.93;1.60;;;19.00;94.40;;;;;;5023912;28;20115;-75
2023/07/25 13:24:47;;;;;;;6.28;1.40;;;19.10;94.60;;;;;;5014004;28;20038;-75
2023/07/25 13:27:33;;;;;;;6.18;1.60;;;19.00;95.70;;;;;;5003735;28;20129;-74
2023/07/25 13:30:19;;;;;;;3.42;1.50;;;18.80;95.60;;;;;;5015680;28;20072;-74
2023/07/25 13:33:05;;;;;;;5.53;1.20;;;18.70;95.60;;;;;;5019186;28;20041;-75
2023/07/25 13:35:53;;;;;;;4.50;1.50;;;18.90;95.70;;;;;;5013355;28;20048;-75
2023/07/25 13:38:39;;;;;;;;;;;18.80;94.90;;;;;;5023419;28;20044;-76
2023/07/25 13:41:25;;;;;;;6.07;1.70;;;18.80;95.00;;;;;;5034686;28;19916;-76
2023/07/25 13:44:11;;;;;;;8.57;1.55;;;18.70;95.20;;;;;;5036170;28;20143;-76
2023/07/25 13:46:59;;;;;;;9.13;1.40;;;18.90;95.60;;;;;;5024338;28;20104;-76
2023/07/25 13:49:45;;;;;;;5.18;1.42;;;18.90;95.90;;;;;;5014691;28;20065;-76
2023/07/25 13:52:31;;;;;;;5.97;1.80;;;18.90;95.40;;;;;;5009264;28;20354;-76
2023/07/25 13:55:17;;;;;;;4.15;1.70;;;19.10;95.50;;;;;;5034462;28;20059;-76
2023/07/25 13:58:03;;;;;;;4.78;1.58;;;19.10;95.30;;;;;;5018581;28;20041;-76
2023/07/25 14:00:49;;;;;;;4.45;1.48;;;18.90;94.80;;;;;;5017394;28;20037;-77
2023/07/25 14:03:35;;;;;;;6.82;1.60;;;18.80;94.90;;;;;;5024267;28;20038;-77
2023/07/25 14:06:22;;;;;;;5.38;1.40;;;18.80;95.50;;;;;;5019847;28;20115;-76
2023/07/25 14:09:09;;;;;;;5.30;1.27;;;19.00;96.00;;;;;;5007933;28;20393;-77
2023/07/25 14:11:56;;;;;;;3.55;1.52;;;18.90;94.90;;;;;;5030637;28;20048;-76
2023/07/25 14:14:42;;;;;;;4.88;1.63;;;18.80;95.70;;;;;;5013389;28;20132;-76
2023/07/25 14:17:28;;;;;;;4.95;1.65;;;18.80;96.00;;;;;;5012957;28;20068;-75
2023/07/25 14:20:15;;;;;;;4.43;1.70;;;18.90;96.10;;;;;;5013723;28;20033;-75
2023/07/25 14:23:01;;;;;;;5.43;1.40;;;19.00;96.00;;;;;;5013494;28;20045;-76
2023/07/25 14:25:47;;;;;;;3.67;1.50;;;19.10;95.90;;;;;;5004768;28;20099;-76